Time;durP1;ratioP1;P1;durP2;ratioP2;P2;SDS_P1;SDS_P2;PMS_P1;PMS_P2;Temp;Humidity;BMP_temperature;BMP_pressure;BME280_temperature;BME280_humidity;BME280_pressure;Samples;Min_cycle;Max_cycle;Signal;HPM_P1;HPM_P2
2020/12/20 09:07:40;;;;;;;25.25;4.50;;;10.30;99.90;;;;;;5100451;27;20361;-73
2020/12/20 09:10:10;;;;;;;;;;;10.50;99.90;;;;;;5074481;28;20016;-72
2020/12/20 09:12:45;;;;;;;18.77;4.43;;;11.00;99.90;;;;;;5075111;28;19908;-73
2020/12/20 09:15:14;;;;;;;21.98;4.15;;;11.40;99.90;;;;;;5075582;28;20367;-72
2020/12/20 09:17:41;;;;;;;25.70;5.10;;;11.80;99.90;;;;;;5062345;28;20024;-73
2020/12/20 09:22:52;;;;;;;37.22;11.18;;;12.30;99.90;;;;;;5102832;27;20341;-73
2020/12/20 09:25:39;;;;;;;26.80;6.32;;;12.50;99.90;;;;;;5102118;28;20028;-73
2020/12/20 09:28:27;;;;;;;21.38;4.50;;;12.60;99.90;;;;;;5105398;28;20023;-74
2020/12/20 09:30:55;;;;;;;21.63;4.72;;;12.80;99.90;;;;;;5086956;28;22012;-73
2020/12/20 09:33:28;;;;;;;37.67;5.40;;;13.00;99.90;;;;;;5061668;28;20025;-73
2020/12/20 09:36:00;;;;;;;28.45;5.40;;;13.00;99.90;;;;;;5056721;28;20514;-72
2020/12/20 09:38:36;;;;;;;25.73;4.95;;;13.10;99.90;;;;;;5061877;28;20070;-73
2020/12/20 09:41:05;;;;;;;21.65;4.72;;;13.10;99.90;;;;;;5059465;28;20037;-74
2020/12/20 10:03:19;;;;;;;18.45;3.97;;;12.50;99.90;;;;;;5076352;27;20345;-73
2020/12/20 10:05:45;;;;;;;26.70;3.97;;;12.60;99.90;;;;;;5078234;28;20107;-72
2020/12/20 10:08:13;;;;;;;20.42;4.60;;;12.70;99.90;;;;;;5080558;28;20056;-72
2020/12/20 10:10:39;;;;;;;28.85;3.90;;;12.80;99.90;;;;;;5084927;28;20405;-72
2020/12/20 10:13:04;;;;;;;26.45;3.80;;;13.00;99.90;;;;;;5078328;28;20025;-71
2020/12/20 10:15:30;;;;;;;15.35;3.22;;;13.00;99.90;;;;;;5065055;28;20575;-71
2020/12/20 10:17:57;;;;;;;21.67;3.92;;;13.00;99.90;;;;;;5038619;28;20044;-71
2020/12/20 10:20:23;;;;;;;23.23;3.83;;;13.10;99.90;;;;;;5035270;28;20527;-71
2020/12/20 10:22:48;;;;;;;22.02;4.30;;;13.20;99.90;;;;;;5035317;28;20026;-71
2020/12/20 10:25:14;;;;;;;22.45;3.28;;;13.20;99.90;;;;;;5034567;28;20025;-71
2020/12/20 10:27:41;;;;;;;18.67;3.22;;;13.10;99.90;;;;;;5038211;28;20044;-70
2020/12/20 10:30:07;;;;;;;15.88;3.80;;;13.20;99.90;;;;;;5037393;28;20034;-71
2020/12/20 10:32:32;;;;;;;24.02;3.78;;;13.20;99.90;;;;;;5016490;28;20030;-72
2020/12/20 10:34:58;;;;;;;16.30;4.00;;;13.20;99.90;;;;;;5013818;28;20030;-72
2020/12/20 10:37:23;;;;;;;20.13;3.50;;;13.20;99.90;;;;;;5012570;28;20396;-72
2020/12/20 10:39:49;;;;;;;26.70;3.70;;;13.30;99.90;;;;;;5011113;28;20057;-73
2020/12/20 10:42:15;;;;;;;25.27;4.03;;;13.20;99.90;;;;;;5013455;28;20038;-71
2020/12/20 10:44:41;;;;;;;30.33;4.38;;;13.30;99.90;;;;;;5013116;28;20033;-72
2020/12/20 10:47:07;;;;;;;16.35;4.00;;;13.20;99.90;;;;;;5009728;28;20042;-72
2020/12/20 10:49:33;;;;;;;24.45;4.07;;;13.20;99.90;;;;;;4996288;28;20393;-71
2020/12/20 10:51:59;;;;;;;25.15;3.95;;;13.30;99.90;;;;;;4997543;28;20019;-71
2020/12/20 10:54:29;;;;;;;18.20;3.78;;;13.40;99.90;;;;;;4994182;28;20039;-70
2020/12/20 10:56:58;;;;;;;21.65;4.35;;;13.50;99.90;;;;;;4999533;28;20026;-72
2020/12/20 10:59:29;;;;;;;16.63;3.42;;;13.50;99.90;;;;;;5001716;28;20030;-72
2020/12/20 11:01:57;;;;;;;21.60;3.72;;;13.50;99.90;;;;;;4993739;28;20042;-71
2020/12/20 11:04:24;;;;;;;21.13;3.40;;;13.60;99.90;;;;;;4998035;28;20034;-73
2020/12/20 11:06:56;;;;;;;23.02;3.72;;;13.60;99.90;;;;;;4995981;28;20045;-72
2020/12/20 11:09:23;;;;;;;23.60;3.70;;;13.50;99.90;;;;;;4998763;28;20026;-71
2020/12/20 11:11:49;;;;;;;20.08;3.85;;;13.60;99.90;;;;;;4996389;28;20726;-70
2020/12/20 11:14:14;;;;;;;23.35;3.70;;;13.60;99.90;;;;;;4987505;28;20026;-72
2020/12/20 11:16:43;;;;;;;17.50;3.88;;;13.60;99.90;;;;;;4983838;28;20035;-71
2020/12/20 11:19:09;;;;;;;19.27;3.92;;;13.70;99.90;;;;;;4981757;28;20170;-70
2020/12/20 11:21:34;;;;;;;18.55;4.07;;;13.70;99.90;;;;;;4988376;28;20113;-72
2020/12/20 11:24:00;;;;;;;20.70;3.60;;;13.70;99.90;;;;;;4988251;28;20441;-72
2020/12/20 11:26:27;;;;;;;17.73;3.58;;;13.60;99.90;;;;;;4985153;28;20577;-72
2020/12/20 11:28:54;;;;;;;25.77;4.30;;;13.50;99.90;;;;;;4987860;28;20670;-72
2020/12/20 11:31:24;;;;;;;21.33;3.55;;;13.50;99.90;;;;;;4981623;28;20517;-72
2020/12/20 11:33:51;;;;;;;18.35;3.33;;;13.40;99.90;;;;;;4981725;28;20609;-70
2020/12/20 11:36:18;;;;;;;18.63;3.92;;;13.30;99.90;;;;;;4991059;28;20042;-71
2020/12/20 11:38:45;;;;;;;20.30;3.03;;;13.40;99.90;;;;;;4988870;28;20035;-71
2020/12/20 11:41:11;;;;;;;14.35;3.35;;;13.20;99.90;;;;;;4979128;28;20047;-70
2020/12/20 11:43:37;;;;;;;17.23;2.70;;;13.20;99.90;;;;;;4981834;28;20025;-73
2020/12/20 11:46:03;;;;;;;23.60;4.22;;;13.30;99.90;;;;;;4978654;28;20049;-71
2020/12/20 11:48:29;;;;;;;15.20;3.03;;;13.30;99.90;;;;;;4981009;28;20039;-72
2020/12/20 11:50:55;;;;;;;15.75;2.83;;;13.40;99.90;;;;;;4983153;28;20040;-72
2020/12/20 11:53:22;;;;;;;19.65;3.88;;;13.50;99.90;;;;;;4981532;28;20037;-72
2020/12/20 11:55:47;;;;;;;20.70;3.25;;;13.50;99.90;;;;;;4983775;28;20500;-71
2020/12/20 11:58:13;;;;;;;14.68;2.90;;;13.30;99.90;;;;;;4980855;28;20752;-71
2020/12/20 12:00:47;;;;;;;17.23;3.63;;;13.40;99.90;;;;;;4984507;28;20422;-71
2020/12/20 12:03:14;;;;;;;15.55;3.20;;;13.50;99.90;;;;;;4977606;28;20517;-71
2020/12/20 12:05:41;;;;;;;20.88;4.03;;;13.60;99.90;;;;;;4980475;28;20396;-70
2020/12/20 12:08:08;;;;;;;20.60;3.70;;;13.70;99.90;;;;;;4979059;28;20031;-70
2020/12/20 12:10:35;;;;;;;17.35;3.15;;;13.80;99.90;;;;;;4985311;28;20070;-71
2020/12/20 12:13:02;;;;;;;19.83;3.90;;;13.90;99.90;;;;;;4978369;28;20030;-71
2020/12/20 12:15:29;;;;;;;12.02;3.28;;;13.80;99.90;;;;;;4981939;28;20153;-71
2020/12/20 12:17:55;;;;;;;15.02;2.17;;;13.80;99.90;;;;;;4981767;28;20026;-70
2020/12/20 12:20:21;;;;;;;18.17;3.53;;;13.80;99.90;;;;;;4983735;28;20113;-71
2020/12/20 12:22:47;;;;;;;17.55;3.45;;;13.80;99.90;;;;;;4989236;28;20085;-70
2020/12/20 12:25:13;;;;;;;17.15;3.25;;;13.90;99.90;;;;;;4980378;28;20022;-72
2020/12/20 12:27:39;;;;;;;16.65;2.72;;;13.90;99.90;;;;;;4974780;28;20026;-72
2020/12/20 12:30:05;;;;;;;14.27;2.70;;;13.90;99.90;;;;;;4978891;28;20053;-72
2020/12/20 12:32:31;;;;;;;16.88;3.78;;;13.70;99.90;;;;;;4981807;28;20093;-71
2020/12/20 12:34:56;;;;;;;15.45;2.55;;;13.60;99.90;;;;;;4980505;28;20038;-71
2020/12/20 12:37:22;;;;;;;13.73;2.17;;;13.50;99.90;;;;;;4985800;28;20034;-71
2020/12/20 12:39:48;;;;;;;9.18;2.17;;;13.70;99.90;;;;;;4978052;28;20844;-70
2020/12/20 12:42:14;;;;;;;17.50;2.63;;;13.80;99.90;;;;;;4979181;28;20039;-72
2020/12/20 12:44:43;;;;;;;14.50;2.65;;;13.90;99.90;;;;;;4983122;28;20090;-71
2020/12/20 12:47:12;;;;;;;17.83;2.38;;;13.90;99.90;;;;;;4975950;28;20122;-72
2020/12/20 12:49:38;;;;;;;19.45;2.53;;;13.90;99.90;;;;;;4983365;28;20031;-72
2020/12/20 12:52:04;;;;;;;18.88;2.85;;;13.90;99.90;;;;;;4980232;28;20061;-73
2020/12/20 12:54:30;;;;;;;6.70;2.00;;;13.90;99.90;;;;;;4980612;28;20065;-73
2020/12/20 12:56:57;;;;;;;16.17;2.60;;;13.70;99.90;;;;;;4988477;28;20030;-73
2020/12/20 12:59:26;;;;;;;12.43;2.38;;;13.70;99.90;;;;;;4977624;28;20023;-73
2020/12/20 13:01:52;;;;;;;15.27;2.35;;;13.70;99.90;;;;;;4973493;28;20042;-74
2020/12/20 13:04:17;;;;;;;11.48;2.00;;;13.70;99.90;;;;;;4973169;28;20044;-73
2020/12/20 13:06:43;;;;;;;18.45;2.90;;;13.80;99.90;;;;;;4983268;28;20042;-74
2020/12/20 13:09:09;;;;;;;11.82;2.10;;;13.70;99.90;;;;;;4978488;28;20057;-75
2020/12/20 13:11:35;;;;;;;7.10;1.95;;;13.80;99.90;;;;;;4976944;28;20488;-74
2020/12/20 13:14:04;;;;;;;13.15;2.25;;;13.80;99.90;;;;;;4976390;28;20086;-74
2020/12/20 13:16:36;;;;;;;9.57;2.22;;;13.90;99.90;;;;;;4979172;28;20034;-73
2020/12/20 13:19:02;;;;;;;13.40;2.17;;;13.90;99.90;;;;;;4983364;28;20084;-73
2020/12/20 13:21:28;;;;;;;14.32;2.90;;;13.90;99.90;;;;;;4984745;28;20121;-74
2020/12/20 13:23:54;;;;;;;14.60;2.75;;;13.90;99.90;;;;;;4984227;28;20029;-73
2020/12/20 13:26:20;;;;;;;13.23;3.20;;;13.80;99.90;;;;;;4979676;28;20023;-74
2020/12/20 13:28:46;;;;;;;12.88;2.22;;;13.80;99.90;;;;;;4985499;28;20035;-74
2020/12/20 13:31:17;;;;;;;13.55;2.00;;;14.00;99.90;;;;;;4981482;28;20069;-74
2020/12/20 13:33:43;;;;;;;12.93;2.30;;;14.00;99.90;;;;;;4979110;28;20018;-73
2020/12/20 13:36:09;;;;;;;16.50;3.05;;;13.90;99.90;;;;;;4983204;28;20031;-75
2020/12/20 13:38:35;;;;;;;8.30;2.25;;;14.00;99.90;;;;;;4982349;28;20054;-73
2020/12/20 13:41:01;;;;;;;10.00;2.10;;;14.00;99.90;;;;;;4983636;28;20474;-72
2020/12/20 13:43:27;;;;;;;12.40;2.55;;;14.00;99.90;;;;;;4970881;28;20112;-73
2020/12/20 13:45:54;;;;;;;12.38;2.05;;;14.00;99.90;;;;;;4981905;28;20027;-74
2020/12/20 13:48:20;;;;;;;9.25;2.72;;;14.00;99.90;;;;;;4984872;28;20100;-73
2020/12/20 13:50:47;;;;;;;8.00;1.67;;;14.00;99.90;;;;;;4979520;28;20022;-73
2020/12/20 13:53:14;;;;;;;13.82;2.55;;;14.00;99.90;;;;;;4980258;28;20065;-73
2020/12/20 13:55:40;;;;;;;8.63;2.70;;;13.90;99.90;;;;;;4980650;28;20035;-73
2020/12/20 13:58:06;;;;;;;10.27;2.55;;;13.70;99.90;;;;;;4975360;28;20038;-73
2020/12/20 14:00:35;;;;;;;10.90;2.67;;;13.70;99.90;;;;;;4983587;28;20038;-73
2020/12/20 14:03:01;;;;;;;10.15;2.47;;;13.70;99.90;;;;;;4977273;28;20337;-73
2020/12/20 14:05:26;;;;;;;6.75;1.85;;;13.80;99.90;;;;;;4976841;28;20364;-74
2020/12/20 14:07:52;;;;;;;9.48;2.00;;;13.70;99.90;;;;;;4979775;28;20034;-73
2020/12/20 14:10:17;;;;;;;9.60;1.92;;;13.80;99.90;;;;;;4979851;28;20049;-72
2020/12/20 14:12:43;;;;;;;5.60;2.03;;;13.80;99.90;;;;;;4982610;28;20591;-74
2020/12/20 14:15:09;;;;;;;12.43;1.95;;;13.70;99.90;;;;;;4977066;28;20030;-72
2020/12/20 14:17:36;;;;;;;9.30;2.05;;;13.80;99.90;;;;;;4985231;28;20042;-73
2020/12/20 14:20:06;;;;;;;8.10;1.92;;;13.70;99.90;;;;;;4982109;28;20026;-73
2020/12/20 14:22:32;;;;;;;10.70;2.30;;;13.60;99.90;;;;;;4980399;28;20516;-74
2020/12/20 14:24:57;;;;;;;11.52;2.50;;;13.60;99.90;;;;;;4978994;28;20026;-72
2020/12/20 14:27:25;;;;;;;8.32;1.77;;;13.60;99.90;;;;;;4983753;28;20181;-73
2020/12/20 14:29:51;;;;;;;13.25;2.75;;;13.70;99.90;;;;;;4985824;28;20488;-74
2020/12/20 14:32:18;;;;;;;15.02;2.13;;;13.60;99.90;;;;;;4985574;28;20390;-73
2020/12/20 14:34:44;;;;;;;10.23;2.25;;;13.30;99.90;;;;;;4981361;28;20027;-74
2020/12/20 14:37:10;;;;;;;11.50;2.72;;;13.40;99.90;;;;;;4980119;28;20030;-74
2020/12/20 14:39:39;;;;;;;11.27;2.58;;;13.40;99.90;;;;;;4979620;28;20026;-73
2020/12/20 14:42:05;;;;;;;8.63;2.45;;;13.40;99.90;;;;;;4976624;28;20042;-74
2020/12/20 14:44:32;;;;;;;9.75;2.88;;;13.20;99.90;;;;;;4978661;28;20022;-74
2020/12/20 14:46:58;;;;;;;11.95;2.45;;;13.20;99.90;;;;;;4976197;28;20038;-73
2020/12/20 14:49:24;;;;;;;10.77;2.70;;;13.30;99.90;;;;;;4982463;28;20038;-74
2020/12/20 14:51:50;;;;;;;11.88;2.55;;;13.30;99.90;;;;;;4984626;28;20528;-73
2020/12/20 14:54:16;;;;;;;21.15;4.35;;;13.40;99.90;;;;;;4979670;28;20034;-74
2020/12/20 14:56:42;;;;;;;11.23;2.70;;;13.40;99.90;;;;;;4985555;28;20042;-74
2020/12/20 14:59:07;;;;;;;12.05;4.00;;;13.30;99.90;;;;;;4985398;28;20045;-74
2020/12/20 15:01:33;;;;;;;12.98;2.78;;;13.30;99.90;;;;;;4983930;28;20497;-74
2020/12/20 15:04:02;;;;;;;14.75;3.90;;;13.30;99.90;;;;;;4981521;28;20034;-74
